CheckWX is a tool to help pilots better visualize weather data.  It is not intended as a substitute for an official pre-flight weather briefing.

18:26:06 UTC

YPWR TAF
Woomera Airfield Airport
Woomera, Australia
TAF YPWR 161647Z 1618/1712 15008KT CAVOK FM170400 18010KT CAVOK

Feb-16@
18:00 UTC

Feb-16 @ 18:00 UTC

Feb-17@
04:00 UTC

Feb-17 @ 04:00 UTC

TAF YPWR 161647Z 1618/1712 15008KT CAVOK
Wind
  • 150° at 8 KTS
Conditions
No significant weather
Cloud Levels
  • No significant clouds

Feb-17@
04:00 UTC

Feb-17 @ 04:00 UTC

Feb-17@
12:00 UTC

Feb-17 @ 12:00 UTC

FM170400 18010KT CAVOK

From

From Standard forecast or significant change

Wind
  • 180° at 10 KTS
Conditions
No significant weather
Cloud Levels
  • No significant clouds